sensor_id;sensor_type;location;lat;lon;timestamp;pressure;altitude;pressure_sealevel;temperature;humidity
29121;BME280;16191;49.548;8.658;2023-11-19T00:00:09;100167.22;;;8.08;100.00
29121;BME280;16191;49.548;8.658;2023-11-19T00:02:40;100168.00;;;8.10;100.00
29121;BME280;16191;49.548;8.658;2023-11-19T00:05:08;100171.38;;;8.14;100.00
29121;BME280;16191;49.548;8.658;2023-11-19T00:07:36;100172.97;;;8.18;100.00
29121;BME280;16191;49.548;8.658;2023-11-19T00:10:03;100172.22;;;8.14;100.00
29121;BME280;16191;49.548;8.658;2023-11-19T00:12:33;100172.13;;;8.17;100.00
29121;BME280;16191;49.548;8.658;2023-11-19T00:15:00;100170.38;;;8.18;100.00
29121;BME280;16191;49.548;8.658;2023-11-19T00:17:27;100162.63;;;8.16;100.00
29121;BME280;16191;49.548;8.658;2023-11-19T00:19:53;100156.25;;;8.25;100.00
29121;BME280;16191;49.548;8.658;2023-11-19T00:22:20;100132.06;;;8.23;100.00
29121;BME280;16191;49.548;8.658;2023-11-19T00:24:48;100135.47;;;8.25;100.00
29121;BME280;16191;49.548;8.658;2023-11-19T00:27:15;100133.66;;;8.27;100.00
29121;BME280;16191;49.548;8.658;2023-11-19T00:29:42;100124.00;;;8.32;100.00
29121;BME280;16191;49.548;8.658;2023-11-19T00:32:11;100123.84;;;8.37;100.00
29121;BME280;16191;49.548;8.658;2023-11-19T00:34:38;100115.25;;;8.35;100.00
29121;BME280;16191;49.548;8.658;2023-11-19T00:37:05;100107.34;;;8.38;100.00
29121;BME280;16191;49.548;8.658;2023-11-19T00:39:32;100106.47;;;8.39;100.00
29121;BME280;16191;49.548;8.658;2023-11-19T00:41:58;100120.22;;;8.42;100.00
29121;BME280;16191;49.548;8.658;2023-11-19T00:44:25;100127.09;;;8.43;100.00
29121;BME280;16191;49.548;8.658;2023-11-19T00:46:52;100126.13;;;8.46;100.00
29121;BME280;16191;49.548;8.658;2023-11-19T00:49:19;100131.19;;;8.50;100.00
29121;BME280;16191;49.548;8.658;2023-11-19T00:51:46;100136.34;;;8.52;100.00
29121;BME280;16191;49.548;8.658;2023-11-19T00:54:13;100128.63;;;8.49;100.00
29121;BME280;16191;49.548;8.658;2023-11-19T00:56:39;100118.94;;;8.54;100.00
29121;BME280;16191;49.548;8.658;2023-11-19T00:59:06;100120.56;;;8.56;100.00
29121;BME280;16191;49.548;8.658;2023-11-19T01:01:34;100129.31;;;8.54;100.00
29121;BME280;16191;49.548;8.658;2023-11-19T01:04:00;100128.44;;;8.55;100.00
29121;BME280;16191;49.548;8.658;2023-11-19T01:06:32;100129.19;;;8.58;100.00
29121;BME280;16191;49.548;8.658;2023-11-19T01:08:58;100123.97;;;8.58;100.00
29121;BME280;16191;49.548;8.658;2023-11-19T01:11:25;100113.47;;;8.62;100.00
29121;BME280;16191;49.548;8.658;2023-11-19T01:13:52;100118.66;;;8.62;100.00
29121;BME280;16191;49.548;8.658;2023-11-19T01:16:19;100109.97;;;8.63;100.00
29121;BME280;16191;49.548;8.658;2023-11-19T01:18:47;100114.09;;;8.68;100.00
29121;BME280;16191;49.548;8.658;2023-11-19T01:21:13;100110.75;;;8.65;100.00
29121;BME280;16191;49.548;8.658;2023-11-19T01:23:43;100109.00;;;8.65;100.00
29121;BME280;16191;49.548;8.658;2023-11-19T01:26:10;100103.81;;;8.65;100.00
29121;BME280;16191;49.548;8.658;2023-11-19T01:28:39;100105.38;;;8.69;100.00
29121;BME280;16191;49.548;8.658;2023-11-19T01:31:18;100110.41;;;8.74;100.00
29121;BME280;16191;49.548;8.658;2023-11-19T01:33:44;100119.13;;;8.73;100.00
29121;BME280;16191;49.548;8.658;2023-11-19T01:36:14;100114.50;;;8.81;100.00
29121;BME280;16191;49.548;8.658;2023-11-19T01:38:41;100116.38;;;8.77;100.00
29121;BME280;16191;49.548;8.658;2023-11-19T01:41:07;100116.22;;;8.82;100.00
29121;BME280;16191;49.548;8.658;2023-11-19T01:43:36;100117.00;;;8.84;100.00
29121;BME280;16191;49.548;8.658;2023-11-19T01:46:05;100118.91;;;8.79;100.00
29121;BME280;16191;49.548;8.658;2023-11-19T01:48:33;100128.28;;;8.84;100.00
29121;BME280;16191;49.548;8.658;2023-11-19T01:51:00;100109.25;;;8.82;100.00
29121;BME280;16191;49.548;8.658;2023-11-19T01:53:30;100080.63;;;8.82;100.00
29121;BME280;16191;49.548;8.658;2023-11-19T01:55:57;100087.44;;;8.86;100.00
29121;BME280;16191;49.548;8.658;2023-11-19T01:58:24;100082.28;;;8.85;100.00
29121;BME280;16191;49.548;8.658;2023-11-19T02:00:51;100080.47;;;8.87;100.00
29121;BME280;16191;49.548;8.658;2023-11-19T02:03:19;100093.25;;;8.93;100.00
29121;BME280;16191;49.548;8.658;2023-11-19T02:05:48;100094.19;;;8.90;100.00
29121;BME280;16191;49.548;8.658;2023-11-19T02:08:15;100089.63;;;8.97;100.00
29121;BME280;16191;49.548;8.658;2023-11-19T02:10:42;100071.47;;;8.96;100.00
29121;BME280;16191;49.548;8.658;2023-11-19T02:13:09;100046.25;;;8.98;100.00
29121;BME280;16191;49.548;8.658;2023-11-19T02:15:36;100034.97;;;8.97;100.00
29121;BME280;16191;49.548;8.658;2023-11-19T02:18:25;100029.50;;;9.05;100.00
29121;BME280;16191;49.548;8.658;2023-11-19T02:20:57;100039.91;;;9.05;100.00
29121;BME280;16191;49.548;8.658;2023-11-19T02:23:28;100029.50;;;9.05;100.00
29121;BME280;16191;49.548;8.658;2023-11-19T02:26:29;100032.09;;;9.05;100.00
29121;BME280;16191;49.548;8.658;2023-11-19T02:28:58;100043.09;;;9.11;100.00
29121;BME280;16191;49.548;8.658;2023-11-19T02:31:24;100029.38;;;9.08;100.00
29121;BME280;16191;49.548;8.658;2023-11-19T02:33:54;100045.47;;;9.17;100.00
29121;BME280;16191;49.548;8.658;2023-11-19T02:36:21;100039.44;;;9.17;100.00
29121;BME280;16191;49.548;8.658;2023-11-19T02:38:48;100036.81;;;9.17;100.00
29121;BME280;16191;49.548;8.658;2023-11-19T02:41:14;100030.66;;;9.19;100.00
29121;BME280;16191;49.548;8.658;2023-11-19T02:43:41;100028.16;;;9.16;100.00
29121;BME280;16191;49.548;8.658;2023-11-19T02:46:07;100026.19;;;9.23;100.00
29121;BME280;16191;49.548;8.658;2023-11-19T02:48:37;100021.88;;;9.22;100.00
29121;BME280;16191;49.548;8.658;2023-11-19T02:51:05;100022.63;;;9.25;100.00
29121;BME280;16191;49.548;8.658;2023-11-19T02:53:36;100016.69;;;9.22;100.00
29121;BME280;16191;49.548;8.658;2023-11-19T02:56:04;100009.72;;;9.22;100.00
29121;BME280;16191;49.548;8.658;2023-11-19T02:58:53;100002.69;;;9.24;100.00
29121;BME280;16191;49.548;8.658;2023-11-19T03:01:24;100010.44;;;9.26;100.00
29121;BME280;16191;49.548;8.658;2023-11-19T03:03:57;100016.50;;;9.26;100.00
29121;BME280;16191;49.548;8.658;2023-11-19T03:06:25;99994.75;;;9.27;100.00
29121;BME280;16191;49.548;8.658;2023-11-19T03:08:52;99982.59;;;9.28;100.00
29121;BME280;16191;49.548;8.658;2023-11-19T03:11:18;99984.22;;;9.31;100.00
29121;BME280;16191;49.548;8.658;2023-11-19T03:13:45;99983.38;;;9.30;100.00
29121;BME280;16191;49.548;8.658;2023-11-19T03:16:13;99982.44;;;9.31;100.00
29121;BME280;16191;49.548;8.658;2023-11-19T03:18:40;99985.00;;;9.33;100.00
29121;BME280;16191;49.548;8.658;2023-11-19T03:21:06;99984.81;;;9.37;100.00
29121;BME280;16191;49.548;8.658;2023-11-19T03:23:35;99984.56;;;9.43;100.00
29121;BME280;16191;49.548;8.658;2023-11-19T03:26:02;99982.16;;;9.39;100.00
29121;BME280;16191;49.548;8.658;2023-11-19T03:28:32;99991.53;;;9.43;100.00
29121;BME280;16191;49.548;8.658;2023-11-19T03:30:59;99988.03;;;9.44;100.00
29121;BME280;16191;49.548;8.658;2023-11-19T03:33:25;99986.03;;;9.50;100.00
29121;BME280;16191;49.548;8.658;2023-11-19T03:35:55;99981.75;;;9.49;100.00
29121;BME280;16191;49.548;8.658;2023-11-19T03:38:23;99979.06;;;9.51;100.00
29121;BME280;16191;49.548;8.658;2023-11-19T03:40:50;99984.13;;;9.54;100.00
29121;BME280;16191;49.548;8.658;2023-11-19T03:43:17;99986.72;;;9.54;100.00
29121;BME280;16191;49.548;8.658;2023-11-19T03:45:45;99980.56;;;9.56;100.00
29121;BME280;16191;49.548;8.658;2023-11-19T03:48:13;99978.63;;;9.61;100.00
29121;BME280;16191;49.548;8.658;2023-11-19T03:50:43;99976.91;;;9.60;100.00
29121;BME280;16191;49.548;8.658;2023-11-19T03:53:09;99966.38;;;9.63;100.00
29121;BME280;16191;49.548;8.658;2023-11-19T03:55:36;99972.69;;;9.58;100.00
29121;BME280;16191;49.548;8.658;2023-11-19T03:58:03;99982.91;;;9.62;100.00
29121;BME280;16191;49.548;8.658;2023-11-19T04:00:30;99986.25;;;9.66;100.00
29121;BME280;16191;49.548;8.658;2023-11-19T04:02:57;99976.81;;;9.63;100.00
29121;BME280;16191;49.548;8.658;2023-11-19T04:05:24;99971.59;;;9.63;100.00
29121;BME280;16191;49.548;8.658;2023-11-19T04:07:51;99965.28;;;9.69;100.00
29121;BME280;16191;49.548;8.658;2023-11-19T04:10:17;99955.66;;;9.71;100.00
29121;BME280;16191;49.548;8.658;2023-11-19T04:12:45;99956.34;;;9.75;100.00
29121;BME280;16191;49.548;8.658;2023-11-19T04:15:11;99962.41;;;9.75;100.00
29121;BME280;16191;49.548;8.658;2023-11-19T04:17:38;99961.56;;;9.75;100.00
29121;BME280;16191;49.548;8.658;2023-11-19T04:20:06;99954.53;;;9.77;100.00
29121;BME280;16191;49.548;8.658;2023-11-19T04:22:37;99956.28;;;9.76;100.00
29121;BME280;16191;49.548;8.658;2023-11-19T04:25:04;99960.59;;;9.77;100.00
29121;BME280;16191;49.548;8.658;2023-11-19T04:27:31;99957.72;;;9.83;100.00
29121;BME280;16191;49.548;8.658;2023-11-19T04:29:57;99959.34;;;9.86;100.00
29121;BME280;16191;49.548;8.658;2023-11-19T04:32:24;99956.28;;;9.96;100.00
29121;BME280;16191;49.548;8.658;2023-11-19T04:34:53;99958.03;;;9.96;100.00
29121;BME280;16191;49.548;8.658;2023-11-19T04:37:19;99958.97;;;9.95;100.00
29121;BME280;16191;49.548;8.658;2023-11-19T04:39:46;99953.84;;;9.93;100.00
29121;BME280;16191;49.548;8.658;2023-11-19T04:42:13;99954.63;;;9.95;100.00
29121;BME280;16191;49.548;8.658;2023-11-19T04:44:39;99948.41;;;9.98;100.00
29121;BME280;16191;49.548;8.658;2023-11-19T04:47:06;99955.53;;;9.94;100.00
29121;BME280;16191;49.548;8.658;2023-11-19T04:49:33;99944.88;;;9.99;100.00
29121;BME280;16191;49.548;8.658;2023-11-19T04:51:59;99940.56;;;9.98;100.00
29121;BME280;16191;49.548;8.658;2023-11-19T04:54:26;99932.38;;;10.07;100.00
29121;BME280;16191;49.548;8.658;2023-11-19T04:56:53;99927.16;;;10.07;100.00
29121;BME280;16191;49.548;8.658;2023-11-19T04:59:19;99941.03;;;10.08;100.00
29121;BME280;16191;49.548;8.658;2023-11-19T05:01:47;99932.44;;;10.06;100.00
29121;BME280;16191;49.548;8.658;2023-11-19T05:04:14;99940.72;;;10.15;100.00
29121;BME280;16191;49.548;8.658;2023-11-19T05:06:41;99942.47;;;10.15;100.00
29121;BME280;16191;49.548;8.658;2023-11-19T05:09:08;99954.78;;;10.11;100.00
29121;BME280;16191;49.548;8.658;2023-11-19T05:11:35;99964.03;;;10.18;100.00
29121;BME280;16191;49.548;8.658;2023-11-19T05:14:02;99964.78;;;10.22;100.00
29121;BME280;16191;49.548;8.658;2023-11-19T05:16:31;99966.53;;;10.21;100.00
29121;BME280;16191;49.548;8.658;2023-11-19T05:18:58;99963.06;;;10.21;100.00
29121;BME280;16191;49.548;8.658;2023-11-19T05:21:25;99962.88;;;10.25;100.00
29121;BME280;16191;49.548;8.658;2023-11-19T05:23:51;99950.81;;;10.23;100.00
29121;BME280;16191;49.548;8.658;2023-11-19T05:26:22;99943.66;;;10.28;100.00
29121;BME280;16191;49.548;8.658;2023-11-19T05:28:50;99957.53;;;10.28;100.00
29121;BME280;16191;49.548;8.658;2023-11-19T05:31:17;99950.63;;;10.27;100.00
29121;BME280;16191;49.548;8.658;2023-11-19T05:33:44;99946.25;;;10.28;100.00
29121;BME280;16191;49.548;8.658;2023-11-19T05:36:11;99952.44;;;10.25;100.00
29121;BME280;16191;49.548;8.658;2023-11-19T05:38:39;99948.22;;;10.23;100.00
29121;BME280;16191;49.548;8.658;2023-11-19T05:41:06;99941.94;;;10.27;100.00
29121;BME280;16191;49.548;8.658;2023-11-19T05:43:33;99935.81;;;10.28;100.00
29121;BME280;16191;49.548;8.658;2023-11-19T05:46:00;99918.34;;;10.30;100.00
29121;BME280;16191;49.548;8.658;2023-11-19T05:48:28;99918.16;;;10.35;100.00
29121;BME280;16191;49.548;8.658;2023-11-19T05:50:55;99927.81;;;10.33;100.00
29121;BME280;16191;49.548;8.658;2023-11-19T05:53:22;99925.69;;;10.41;100.00
29121;BME280;16191;49.548;8.658;2023-11-19T05:55:48;99923.06;;;10.41;100.00
29121;BME280;16191;49.548;8.658;2023-11-19T05:58:25;99912.50;;;10.44;100.00
29121;BME280;16191;49.548;8.658;2023-11-19T06:00:53;99905.59;;;10.43;100.00
29121;BME280;16191;49.548;8.658;2023-11-19T06:03:19;99904.66;;;10.44;100.00
29121;BME280;16191;49.548;8.658;2023-11-19T06:05:48;99902.06;;;10.44;100.00
29121;BME280;16191;49.548;8.658;2023-11-19T06:08:15;99902.72;;;10.49;100.00
29121;BME280;16191;49.548;8.658;2023-11-19T06:10:43;99902.56;;;10.52;100.00
29121;BME280;16191;49.548;8.658;2023-11-19T06:13:13;99904.13;;;10.56;100.00
29121;BME280;16191;49.548;8.658;2023-11-19T06:15:42;99915.28;;;10.59;100.00
29121;BME280;16191;49.548;8.658;2023-11-19T06:18:08;99908.28;;;10.60;100.00
29121;BME280;16191;49.548;8.658;2023-11-19T06:20:36;99906.59;;;10.59;100.00
29121;BME280;16191;49.548;8.658;2023-11-19T06:23:06;99918.63;;;10.61;100.00
29121;BME280;16191;49.548;8.658;2023-11-19T06:25:33;99921.34;;;10.60;100.00
29121;BME280;16191;49.548;8.658;2023-11-19T06:28:02;99922.78;;;10.65;100.00
29121;BME280;16191;49.548;8.658;2023-11-19T06:30:28;99931.53;;;10.64;100.00
29121;BME280;16191;49.548;8.658;2023-11-19T06:32:56;99922.44;;;10.73;100.00
29121;BME280;16191;49.548;8.658;2023-11-19T06:35:23;99918.22;;;10.71;100.00
29121;BME280;16191;49.548;8.658;2023-11-19T06:37:49;99920.75;;;10.72;100.00
29121;BME280;16191;49.548;8.658;2023-11-19T06:40:16;99925.13;;;10.72;100.00
29121;BME280;16191;49.548;8.658;2023-11-19T06:42:43;99920.69;;;10.74;100.00
29121;BME280;16191;49.548;8.658;2023-11-19T06:45:09;99924.22;;;10.73;100.00
29121;BME280;16191;49.548;8.658;2023-11-19T06:47:36;99927.31;;;10.81;100.00
29121;BME280;16191;49.548;8.658;2023-11-19T06:50:02;99936.91;;;10.80;100.00
29121;BME280;16191;49.548;8.658;2023-11-19T06:52:31;99950.56;;;10.85;100.00
29121;BME280;16191;49.548;8.658;2023-11-19T06:54:58;99950.50;;;10.87;100.00
29121;BME280;16191;49.548;8.658;2023-11-19T06:57:28;99953.81;;;10.90;100.00
29121;BME280;16191;49.548;8.658;2023-11-19T06:59:55;99963.41;;;10.90;100.00
29121;BME280;16191;49.548;8.658;2023-11-19T07:02:22;99970.34;;;10.91;100.00
29121;BME280;16191;49.548;8.658;2023-11-19T07:04:53;99967.38;;;10.98;100.00
29121;BME280;16191;49.548;8.658;2023-11-19T07:07:19;99971.97;;;10.93;100.00
29121;BME280;16191;49.548;8.658;2023-11-19T07:09:46;99977.81;;;10.98;100.00
29121;BME280;16191;49.548;8.658;2023-11-19T07:12:13;99988.47;;;10.94;100.00
29121;BME280;16191;49.548;8.658;2023-11-19T07:14:40;99984.59;;;11.03;100.00
29121;BME280;16191;49.548;8.658;2023-11-19T07:17:08;99979.38;;;11.03;100.00
29121;BME280;16191;49.548;8.658;2023-11-19T07:19:35;99989.81;;;11.03;100.00
29121;BME280;16191;49.548;8.658;2023-11-19T07:22:03;99981.22;;;11.01;100.00
29121;BME280;16191;49.548;8.658;2023-11-19T07:24:29;99980.06;;;11.06;100.00
29121;BME280;16191;49.548;8.658;2023-11-19T07:26:56;99972.16;;;11.08;100.00
29121;BME280;16191;49.548;8.658;2023-11-19T07:29:23;99969.19;;;11.15;100.00
29121;BME280;16191;49.548;8.658;2023-11-19T07:31:52;99972.50;;;11.19;100.00
29121;BME280;16191;49.548;8.658;2023-11-19T07:34:19;99994.31;;;11.18;100.00
29121;BME280;16191;49.548;8.658;2023-11-19T07:36:46;99987.13;;;11.23;100.00
29121;BME280;16191;49.548;8.658;2023-11-19T07:39:12;99988.81;;;11.24;100.00
29121;BME280;16191;49.548;8.658;2023-11-19T07:41:39;99980.06;;;11.25;100.00
29121;BME280;16191;49.548;8.658;2023-11-19T07:44:06;99978.81;;;11.32;100.00
29121;BME280;16191;49.548;8.658;2023-11-19T07:46:33;99970.97;;;11.32;100.00
29121;BME280;16191;49.548;8.658;2023-11-19T07:48:59;99987.38;;;11.36;100.00
29121;BME280;16191;49.548;8.658;2023-11-19T07:51:26;99979.53;;;11.36;100.00
29121;BME280;16191;49.548;8.658;2023-11-19T07:53:52;99992.50;;;11.37;100.00
29121;BME280;16191;49.548;8.658;2023-11-19T07:56:19;99985.53;;;11.38;100.00
29121;BME280;16191;49.548;8.658;2023-11-19T07:58:46;99990.53;;;11.42;100.00
29121;BME280;16191;49.548;8.658;2023-11-19T08:01:15;100001.63;;;11.47;100.00
29121;BME280;16191;49.548;8.658;2023-11-19T08:03:42;99994.78;;;11.45;100.00
29121;BME280;16191;49.548;8.658;2023-11-19T08:06:24;100000.78;;;11.47;100.00
29121;BME280;16191;49.548;8.658;2023-11-19T08:08:51;99998.31;;;11.44;100.00
29121;BME280;16191;49.548;8.658;2023-11-19T08:11:18;99986.38;;;11.38;100.00
29121;BME280;16191;49.548;8.658;2023-11-19T08:13:46;100001.91;;;11.41;100.00
29121;BME280;16191;49.548;8.658;2023-11-19T08:16:13;99997.59;;;11.40;100.00
29121;BME280;16191;49.548;8.658;2023-11-19T08:18:44;100001.00;;;11.42;100.00
29121;BME280;16191;49.548;8.658;2023-11-19T08:21:11;100014.91;;;11.43;100.00
29121;BME280;16191;49.548;8.658;2023-11-19T08:23:37;100017.72;;;11.38;100.00
29121;BME280;16191;49.548;8.658;2023-11-19T08:26:05;100018.50;;;11.40;100.00
29121;BME280;16191;49.548;8.658;2023-11-19T08:28:32;100014.19;;;11.39;100.00
29121;BME280;16191;49.548;8.658;2023-11-19T08:31:01;100006.28;;;11.41;100.00
29121;BME280;16191;49.548;8.658;2023-11-19T08:33:28;99990.03;;;11.34;100.00
29121;BME280;16191;49.548;8.658;2023-11-19T08:35:54;99987.94;;;11.42;100.00
29121;BME280;16191;49.548;8.658;2023-11-19T08:38:21;99972.38;;;11.39;100.00
29121;BME280;16191;49.548;8.658;2023-11-19T08:40:51;99970.78;;;11.54;100.00
29121;BME280;16191;49.548;8.658;2023-11-19T08:43:18;99978.97;;;11.65;100.00
29121;BME280;16191;49.548;8.658;2023-11-19T08:45:45;99978.50;;;11.74;100.00
29121;BME280;16191;49.548;8.658;2023-11-19T08:48:11;99976.53;;;11.96;100.00
29121;BME280;16191;49.548;8.658;2023-11-19T08:50:38;99989.13;;;12.06;100.00
29121;BME280;16191;49.548;8.658;2023-11-19T08:53:05;99999.44;;;12.09;100.00
29121;BME280;16191;49.548;8.658;2023-11-19T08:55:33;99994.75;;;11.98;100.00
29121;BME280;16191;49.548;8.658;2023-11-19T08:58:00;100009.38;;;12.02;100.00
29121;BME280;16191;49.548;8.658;2023-11-19T09:00:27;100006.06;;;11.98;100.00
29121;BME280;16191;49.548;8.658;2023-11-19T09:02:53;100008.28;;;12.06;100.00
29121;BME280;16191;49.548;8.658;2023-11-19T09:05:20;100010.44;;;11.98;100.00
29121;BME280;16191;49.548;8.658;2023-11-19T09:07:47;100014.66;;;12.00;100.00
29121;BME280;16191;49.548;8.658;2023-11-19T09:10:15;100011.22;;;12.00;100.00
29121;BME280;16191;49.548;8.658;2023-11-19T09:12:41;100011.06;;;12.03;100.00
29121;BME280;16191;49.548;8.658;2023-11-19T09:15:08;100015.16;;;12.09;100.00
29121;BME280;16191;49.548;8.658;2023-11-19T09:17:37;100021.22;;;12.09;100.00
29121;BME280;16191;49.548;8.658;2023-11-19T09:20:04;100030.50;;;12.15;100.00
29121;BME280;16191;49.548;8.658;2023-11-19T09:22:30;100028.72;;;12.15;100.00
29121;BME280;16191;49.548;8.658;2023-11-19T09:24:57;100032.03;;;12.19;100.00
29121;BME280;16191;49.548;8.658;2023-11-19T09:27:26;100030.28;;;12.19;100.00
29121;BME280;16191;49.548;8.658;2023-11-19T09:29:53;100030.28;;;12.19;100.00
29121;BME280;16191;49.548;8.658;2023-11-19T09:32:24;100028.19;;;12.26;100.00
29121;BME280;16191;49.548;8.658;2023-11-19T09:34:51;100015.81;;;12.29;100.00
29121;BME280;16191;49.548;8.658;2023-11-19T09:37:17;100026.19;;;12.31;100.00
29121;BME280;16191;49.548;8.658;2023-11-19T09:39:47;100025.50;;;12.27;100.00
29121;BME280;16191;49.548;8.658;2023-11-19T09:42:14;100030.81;;;12.26;100.00
29121;BME280;16191;49.548;8.658;2023-11-19T09:44:42;100033.50;;;12.24;100.00
29121;BME280;16191;49.548;8.658;2023-11-19T09:47:11;100030.50;;;12.32;100.00
29121;BME280;16191;49.548;8.658;2023-11-19T09:49:38;100025.94;;;12.35;100.00
29121;BME280;16191;49.548;8.658;2023-11-19T09:52:05;100027.97;;;12.30;100.00
29121;BME280;16191;49.548;8.658;2023-11-19T09:54:32;100026.44;;;12.26;100.00
29121;BME280;16191;49.548;8.658;2023-11-19T09:56:59;100034.13;;;12.29;100.00
29121;BME280;16191;49.548;8.658;2023-11-19T09:59:29;100009.50;;;12.33;100.00
29121;BME280;16191;49.548;8.658;2023-11-19T10:01:56;100014.63;;;12.35;100.00
29121;BME280;16191;49.548;8.658;2023-11-19T10:04:23;100016.25;;;12.38;100.00
29121;BME280;16191;49.548;8.658;2023-11-19T10:06:51;100012.47;;;12.43;100.00
29121;BME280;16191;49.548;8.658;2023-11-19T10:09:18;100016.16;;;12.39;100.00
29121;BME280;16191;49.548;8.658;2023-11-19T10:11:45;100016.00;;;12.42;100.00
29121;BME280;16191;49.548;8.658;2023-11-19T10:14:12;100018.72;;;12.41;100.00
29121;BME280;16191;49.548;8.658;2023-11-19T10:16:40;100013.63;;;12.38;100.00
29121;BME280;16191;49.548;8.658;2023-11-19T10:19:07;100008.16;;;12.42;100.00
29121;BME280;16191;49.548;8.658;2023-11-19T10:21:33;100008.16;;;12.42;100.00
29121;BME280;16191;49.548;8.658;2023-11-19T10:24:00;100016.63;;;12.47;100.00
29121;BME280;16191;49.548;8.658;2023-11-19T10:26:28;100006.78;;;12.52;100.00
29121;BME280;16191;49.548;8.658;2023-11-19T10:28:56;100005.66;;;12.56;100.00
29121;BME280;16191;49.548;8.658;2023-11-19T10:31:22;100012.28;;;12.63;100.00
29121;BME280;16191;49.548;8.658;2023-11-19T10:33:51;100027.44;;;12.74;100.00
29121;BME280;16191;49.548;8.658;2023-11-19T10:36:18;100019.06;;;12.83;100.00
29121;BME280;16191;49.548;8.658;2023-11-19T10:38:53;100023.66;;;12.95;100.00
29121;BME280;16191;49.548;8.658;2023-11-19T10:41:30;100034.34;;;13.24;100.00
29121;BME280;16191;49.548;8.658;2023-11-19T10:43:58;100061.72;;;13.50;100.00
29121;BME280;16191;49.548;8.658;2023-11-19T10:46:39;100078.69;;;14.20;100.00
29121;BME280;16191;49.548;8.658;2023-11-19T10:49:10;100069.59;;;14.41;100.00
29121;BME280;16191;49.548;8.658;2023-11-19T10:51:44;100080.41;;;14.65;100.00
29121;BME280;16191;49.548;8.658;2023-11-19T10:54:15;100075.19;;;14.93;100.00
29121;BME280;16191;49.548;8.658;2023-11-19T10:56:49;100069.81;;;15.09;100.00
29121;BME280;16191;49.548;8.658;2023-11-19T10:59:21;100069.50;;;15.28;100.00
29121;BME280;16191;49.548;8.658;2023-11-19T11:01:53;100070.72;;;15.22;100.00
29121;BME280;16191;49.548;8.658;2023-11-19T11:04:25;100079.72;;;15.32;100.00
29121;BME280;16191;49.548;8.658;2023-11-19T11:06:54;100086.50;;;15.22;100.00
29121;BME280;16191;49.548;8.658;2023-11-19T11:09:21;100081.81;;;15.13;100.00
29121;BME280;16191;49.548;8.658;2023-11-19T11:11:47;100071.69;;;14.93;100.00
29121;BME280;16191;49.548;8.658;2023-11-19T11:14:16;100065.22;;;14.84;100.00
29121;BME280;16191;49.548;8.658;2023-11-19T11:16:46;100065.59;;;14.78;100.00
29121;BME280;16191;49.548;8.658;2023-11-19T11:19:16;100070.66;;;14.67;100.00
29121;BME280;16191;49.548;8.658;2023-11-19T11:21:45;100066.88;;;14.57;100.00
29121;BME280;16191;49.548;8.658;2023-11-19T11:36:20;100055.47;;;14.28;100.00
29121;BME280;16191;49.548;8.658;2023-11-19T11:38:49;100041.03;;;14.21;100.00
29121;BME280;16191;49.548;8.658;2023-11-19T11:41:21;100038.56;;;14.18;100.00
29121;BME280;16191;49.548;8.658;2023-11-19T11:43:54;100045.69;;;14.16;100.00
29121;BME280;16191;49.548;8.658;2023-11-19T11:49:04;100047.72;;;14.11;100.00
29121;BME280;16191;49.548;8.658;2023-11-19T11:54:25;100025.75;;;14.27;100.00
29121;BME280;16191;49.548;8.658;2023-11-19T11:57:07;100033.81;;;14.24;100.00
29121;BME280;16191;49.548;8.658;2023-11-19T11:59:47;100042.78;;;14.20;100.00
29121;BME280;16191;49.548;8.658;2023-11-19T12:02:22;100034.75;;;14.23;100.00
29121;BME280;16191;49.548;8.658;2023-11-19T12:04:50;100036.44;;;14.24;100.00
29121;BME280;16191;49.548;8.658;2023-11-19T12:07:23;100035.84;;;14.19;100.00
29121;BME280;16191;49.548;8.658;2023-11-19T12:10:06;100055.34;;;14.15;100.00
29121;BME280;16191;49.548;8.658;2023-11-19T12:12:34;100046.00;;;14.25;100.00
29121;BME280;16191;49.548;8.658;2023-11-19T12:15:06;100039.31;;;14.20;100.00
29121;BME280;16191;49.548;8.658;2023-11-19T12:20:01;100027.72;;;14.24;100.00
29121;BME280;16191;49.548;8.658;2023-11-19T12:22:28;100027.63;;;14.25;100.00
29121;BME280;16191;49.548;8.658;2023-11-19T12:24:54;100029.41;;;14.25;100.00
29121;BME280;16191;49.548;8.658;2023-11-19T12:27:22;100024.59;;;14.17;100.00
29121;BME280;16191;49.548;8.658;2023-11-19T12:29:49;100027.72;;;14.24;100.00
29121;BME280;16191;49.548;8.658;2023-11-19T12:32:16;100023.50;;;14.21;100.00
29121;BME280;16191;49.548;8.658;2023-11-19T12:34:44;100011.88;;;14.25;100.00
29121;BME280;16191;49.548;8.658;2023-11-19T12:37:11;100028.66;;;14.23;100.00
29121;BME280;16191;49.548;8.658;2023-11-19T12:39:38;100020.44;;;14.29;100.00
29121;BME280;16191;49.548;8.658;2023-11-19T12:42:04;100017.81;;;14.29;100.00
29121;BME280;16191;49.548;8.658;2023-11-19T12:44:31;100024.44;;;14.34;100.00
29121;BME280;16191;49.548;8.658;2023-11-19T12:47:06;100018.34;;;14.34;100.00
29121;BME280;16191;49.548;8.658;2023-11-19T12:49:37;100017.22;;;14.38;100.00
29121;BME280;16191;49.548;8.658;2023-11-19T12:52:13;100022.91;;;14.46;100.00
29121;BME280;16191;49.548;8.658;2023-11-19T12:54:40;100013.53;;;14.42;100.00
29121;BME280;16191;49.548;8.658;2023-11-19T12:57:06;100010.13;;;14.40;100.00
29121;BME280;16191;49.548;8.658;2023-11-19T12:59:34;100020.56;;;14.42;100.00
29121;BME280;16191;49.548;8.658;2023-11-19T13:02:01;100011.66;;;14.44;100.00
29121;BME280;16191;49.548;8.658;2023-11-19T13:04:31;100019.63;;;14.43;100.00
29121;BME280;16191;49.548;8.658;2023-11-19T13:06:59;100013.06;;;14.50;100.00
29121;BME280;16191;49.548;8.658;2023-11-19T13:09:28;100010.72;;;14.45;100.00
29121;BME280;16191;49.548;8.658;2023-11-19T13:11:56;100015.47;;;14.53;100.00